Weather at Falcone–Borsellino Airport

Public forecast

Using degrees Celsius for public forecast. Weather courtesy of forecast.io.

Current aviation weather report (METAR) for Falcone–Borsellino Airport

2024/05/27 02:20 (retrieved 35 minutes ago)

LICJ 270220Z 17004KT CAVOK 17/13 Q1018

Closest aviation forecast (TAF) to Falcone–Borsellino Airport

Forecast is more than 12 hours old.

Closest forecast is Crotone Airport, 193.6 nm (358.5 km) ENE.

2024/05/26 12:06 (retrieved 15 hours ago)

TAF LIBC 261700Z 2612/2712 CNL